sensor_id;sensor_type;location;lat;lon;timestamp;P1;durP1;ratioP1;P2;durP2;ratioP2
36501;SDS011;25393;46.108;3.390;2023-04-15T00:01:13;3.35;;;1.42;;
36501;SDS011;25393;46.108;3.390;2023-04-15T00:03:44;9.27;;;1.48;;
36501;SDS011;25393;46.108;3.390;2023-04-15T00:06:11;5.97;;;1.08;;
36501;SDS011;25393;46.108;3.390;2023-04-15T00:08:38;7.00;;;1.27;;
36501;SDS011;25393;46.108;3.390;2023-04-15T00:11:09;6.68;;;1.10;;
36501;SDS011;25393;46.108;3.390;2023-04-15T00:13:38;5.97;;;1.10;;
36501;SDS011;25393;46.108;3.390;2023-04-15T00:16:09;10.50;;;1.15;;
36501;SDS011;25393;46.108;3.390;2023-04-15T00:18:38;6.53;;;1.38;;
36501;SDS011;25393;46.108;3.390;2023-04-15T00:21:05;12.25;;;1.70;;
36501;SDS011;25393;46.108;3.390;2023-04-15T00:23:34;9.20;;;1.70;;
36501;SDS011;25393;46.108;3.390;2023-04-15T00:26:04;6.93;;;1.50;;
36501;SDS011;25393;46.108;3.390;2023-04-15T00:28:30;9.68;;;1.63;;
36501;SDS011;25393;46.108;3.390;2023-04-15T00:30:57;12.50;;;1.85;;
36501;SDS011;25393;46.108;3.390;2023-04-15T00:33:23;9.45;;;1.70;;
36501;SDS011;25393;46.108;3.390;2023-04-15T00:35:50;10.93;;;1.38;;
36501;SDS011;25393;46.108;3.390;2023-04-15T00:38:17;3.92;;;1.05;;
36501;SDS011;25393;46.108;3.390;2023-04-15T00:40:43;9.32;;;1.63;;
36501;SDS011;25393;46.108;3.390;2023-04-15T00:43:10;8.45;;;1.48;;
36501;SDS011;25393;46.108;3.390;2023-04-15T00:45:40;7.63;;;1.42;;
36501;SDS011;25393;46.108;3.390;2023-04-15T00:48:07;4.93;;;1.30;;
36501;SDS011;25393;46.108;3.390;2023-04-15T00:50:39;7.75;;;1.20;;
36501;SDS011;25393;46.108;3.390;2023-04-15T00:53:06;8.77;;;1.98;;
36501;SDS011;25393;46.108;3.390;2023-04-15T00:55:33;2.83;;;1.15;;
36501;SDS011;25393;46.108;3.390;2023-04-15T00:58:00;11.38;;;1.55;;
36501;SDS011;25393;46.108;3.390;2023-04-15T01:00:26;8.55;;;1.88;;
36501;SDS011;25393;46.108;3.390;2023-04-15T01:02:53;7.22;;;0.75;;
36501;SDS011;25393;46.108;3.390;2023-04-15T01:05:20;10.40;;;1.55;;
36501;SDS011;25393;46.108;3.390;2023-04-15T01:07:47;3.15;;;0.85;;
36501;SDS011;25393;46.108;3.390;2023-04-15T01:10:13;2.20;;;0.73;;
36501;SDS011;25393;46.108;3.390;2023-04-15T01:12:40;3.58;;;1.15;;
36501;SDS011;25393;46.108;3.390;2023-04-15T01:15:07;5.78;;;1.55;;
36501;SDS011;25393;46.108;3.390;2023-04-15T01:17:42;5.50;;;0.85;;
36501;SDS011;25393;46.108;3.390;2023-04-15T01:20:08;2.85;;;0.90;;
36501;SDS011;25393;46.108;3.390;2023-04-15T01:22:38;6.03;;;0.93;;
36501;SDS011;25393;46.108;3.390;2023-04-15T01:25:16;2.83;;;0.90;;
36501;SDS011;25393;46.108;3.390;2023-04-15T01:27:44;4.88;;;1.13;;
36501;SDS011;25393;46.108;3.390;2023-04-15T01:30:11;4.30;;;0.73;;
36501;SDS011;25393;46.108;3.390;2023-04-15T01:32:38;1.40;;;0.75;;
36501;SDS011;25393;46.108;3.390;2023-04-15T01:35:05;4.18;;;1.02;;
36501;SDS011;25393;46.108;3.390;2023-04-15T01:37:31;1.92;;;0.65;;
36501;SDS011;25393;46.108;3.390;2023-04-15T01:39:58;9.13;;;1.20;;
36501;SDS011;25393;46.108;3.390;2023-04-15T01:42:26;1.50;;;0.80;;
36501;SDS011;25393;46.108;3.390;2023-04-15T01:44:52;3.75;;;1.00;;
36501;SDS011;25393;46.108;3.390;2023-04-15T01:47:19;4.15;;;0.95;;
36501;SDS011;25393;46.108;3.390;2023-04-15T01:49:46;5.68;;;1.02;;
36501;SDS011;25393;46.108;3.390;2023-04-15T01:52:12;2.53;;;0.80;;
36501;SDS011;25393;46.108;3.390;2023-04-15T01:54:39;4.28;;;1.13;;
36501;SDS011;25393;46.108;3.390;2023-04-15T01:57:08;2.78;;;1.25;;
36501;SDS011;25393;46.108;3.390;2023-04-15T01:59:35;9.85;;;1.50;;
36501;SDS011;25393;46.108;3.390;2023-04-15T02:02:02;3.22;;;1.38;;
36501;SDS011;25393;46.108;3.390;2023-04-15T02:04:29;2.50;;;0.70;;
36501;SDS011;25393;46.108;3.390;2023-04-15T02:06:56;3.42;;;1.15;;
36501;SDS011;25393;46.108;3.390;2023-04-15T02:09:22;7.38;;;1.30;;
36501;SDS011;25393;46.108;3.390;2023-04-15T02:11:49;5.00;;;0.82;;
36501;SDS011;25393;46.108;3.390;2023-04-15T02:14:16;3.13;;;1.13;;
36501;SDS011;25393;46.108;3.390;2023-04-15T02:16:46;9.32;;;1.23;;
36501;SDS011;25393;46.108;3.390;2023-04-15T02:19:15;8.00;;;1.45;;
36501;SDS011;25393;46.108;3.390;2023-04-15T02:21:43;5.53;;;1.45;;
36501;SDS011;25393;46.108;3.390;2023-04-15T02:24:09;5.10;;;1.35;;
36501;SDS011;25393;46.108;3.390;2023-04-15T02:26:37;8.68;;;2.15;;
36501;SDS011;25393;46.108;3.390;2023-04-15T02:29:04;6.93;;;1.88;;
36501;SDS011;25393;46.108;3.390;2023-04-15T02:31:30;6.85;;;1.58;;
36501;SDS011;25393;46.108;3.390;2023-04-15T02:34:02;8.50;;;1.65;;
36501;SDS011;25393;46.108;3.390;2023-04-15T02:36:29;2.88;;;1.17;;
36501;SDS011;25393;46.108;3.390;2023-04-15T02:38:56;2.40;;;0.90;;
36501;SDS011;25393;46.108;3.390;2023-04-15T02:41:23;4.70;;;1.45;;
36501;SDS011;25393;46.108;3.390;2023-04-15T02:43:53;7.30;;;1.00;;
36501;SDS011;25393;46.108;3.390;2023-04-15T02:46:19;5.88;;;1.02;;
36501;SDS011;25393;46.108;3.390;2023-04-15T02:48:48;8.93;;;1.67;;
36501;SDS011;25393;46.108;3.390;2023-04-15T02:51:16;9.95;;;1.33;;
36501;SDS011;25393;46.108;3.390;2023-04-15T02:53:48;1.85;;;0.90;;
36501;SDS011;25393;46.108;3.390;2023-04-15T02:56:18;6.13;;;1.10;;
36501;SDS011;25393;46.108;3.390;2023-04-15T02:58:45;11.80;;;1.45;;
36501;SDS011;25393;46.108;3.390;2023-04-15T03:01:12;5.75;;;1.20;;
36501;SDS011;25393;46.108;3.390;2023-04-15T03:03:39;5.15;;;1.05;;
36501;SDS011;25393;46.108;3.390;2023-04-15T03:06:05;3.75;;;1.05;;
36501;SDS011;25393;46.108;3.390;2023-04-15T03:08:34;8.30;;;1.35;;
36501;SDS011;25393;46.108;3.390;2023-04-15T03:11:00;4.22;;;0.82;;
36501;SDS011;25393;46.108;3.390;2023-04-15T03:13:27;7.15;;;1.63;;
36501;SDS011;25393;46.108;3.390;2023-04-15T03:15:54;8.93;;;1.00;;
36501;SDS011;25393;46.108;3.390;2023-04-15T03:18:20;5.65;;;1.80;;
36501;SDS011;25393;46.108;3.390;2023-04-15T03:20:50;7.05;;;1.20;;
36501;SDS011;25393;46.108;3.390;2023-04-15T03:23:20;6.28;;;1.92;;
36501;SDS011;25393;46.108;3.390;2023-04-15T03:25:48;6.50;;;0.88;;
36501;SDS011;25393;46.108;3.390;2023-04-15T03:28:15;5.72;;;1.40;;
36501;SDS011;25393;46.108;3.390;2023-04-15T03:30:44;5.47;;;1.52;;
36501;SDS011;25393;46.108;3.390;2023-04-15T03:33:10;7.93;;;1.40;;
36501;SDS011;25393;46.108;3.390;2023-04-15T03:35:37;7.88;;;1.38;;
36501;SDS011;25393;46.108;3.390;2023-04-15T03:38:03;3.92;;;1.08;;
36501;SDS011;25393;46.108;3.390;2023-04-15T03:40:30;6.50;;;0.90;;
36501;SDS011;25393;46.108;3.390;2023-04-15T03:42:56;2.13;;;0.80;;
36501;SDS011;25393;46.108;3.390;2023-04-15T03:45:23;2.40;;;1.15;;
36501;SDS011;25393;46.108;3.390;2023-04-15T03:47:50;2.83;;;1.00;;
36501;SDS011;25393;46.108;3.390;2023-04-15T03:50:20;4.93;;;0.75;;
36501;SDS011;25393;46.108;3.390;2023-04-15T03:52:46;0.88;;;0.63;;
36501;SDS011;25393;46.108;3.390;2023-04-15T03:55:16;1.75;;;0.65;;
36501;SDS011;25393;46.108;3.390;2023-04-15T03:57:44;5.05;;;0.65;;
36501;SDS011;25393;46.108;3.390;2023-04-15T04:00:10;3.92;;;1.27;;
36501;SDS011;25393;46.108;3.390;2023-04-15T04:02:37;6.82;;;1.42;;
36501;SDS011;25393;46.108;3.390;2023-04-15T04:05:04;2.63;;;0.70;;
36501;SDS011;25393;46.108;3.390;2023-04-15T04:07:31;1.33;;;0.53;;
36501;SDS011;25393;46.108;3.390;2023-04-15T04:09:57;8.17;;;1.37;;
36501;SDS011;25393;46.108;3.390;2023-04-15T04:12:24;2.97;;;0.77;;
36501;SDS011;25393;46.108;3.390;2023-04-15T04:14:50;3.90;;;0.80;;
36501;SDS011;25393;46.108;3.390;2023-04-15T04:17:17;3.57;;;0.80;;
36501;SDS011;25393;46.108;3.390;2023-04-15T04:19:47;5.20;;;0.87;;
36501;SDS011;25393;46.108;3.390;2023-04-15T04:22:13;4.23;;;0.73;;
36501;SDS011;25393;46.108;3.390;2023-04-15T04:24:40;3.90;;;0.65;;
36501;SDS011;25393;46.108;3.390;2023-04-15T04:27:06;1.53;;;0.80;;
36501;SDS011;25393;46.108;3.390;2023-04-15T04:29:33;12.70;;;1.08;;
36501;SDS011;25393;46.108;3.390;2023-04-15T04:31:59;7.60;;;1.00;;
36501;SDS011;25393;46.108;3.390;2023-04-15T04:34:26;3.63;;;1.25;;
36501;SDS011;25393;46.108;3.390;2023-04-15T04:36:53;2.63;;;0.80;;
36501;SDS011;25393;46.108;3.390;2023-04-15T04:39:19;5.03;;;0.90;;
36501;SDS011;25393;46.108;3.390;2023-04-15T04:41:49;4.47;;;0.60;;
36501;SDS011;25393;46.108;3.390;2023-04-15T04:44:17;2.17;;;0.70;;
36501;SDS011;25393;46.108;3.390;2023-04-15T04:46:44;3.70;;;0.80;;
36501;SDS011;25393;46.108;3.390;2023-04-15T04:49:10;2.00;;;0.50;;
36501;SDS011;25393;46.108;3.390;2023-04-15T04:51:37;4.70;;;0.73;;
36501;SDS011;25393;46.108;3.390;2023-04-15T04:54:03;2.03;;;0.60;;
36501;SDS011;25393;46.108;3.390;2023-04-15T04:56:30;0.60;;;0.47;;
36501;SDS011;25393;46.108;3.390;2023-04-15T04:58:56;3.57;;;1.00;;
36501;SDS011;25393;46.108;3.390;2023-04-15T05:01:23;0.87;;;0.50;;
36501;SDS011;25393;46.108;3.390;2023-04-15T05:03:54;3.73;;;0.83;;
36501;SDS011;25393;46.108;3.390;2023-04-15T05:06:25;4.30;;;0.80;;
36501;SDS011;25393;46.108;3.390;2023-04-15T05:08:54;3.90;;;0.77;;
36501;SDS011;25393;46.108;3.390;2023-04-15T05:11:21;2.90;;;0.80;;
36501;SDS011;25393;46.108;3.390;2023-04-15T05:13:51;3.43;;;0.77;;
36501;SDS011;25393;46.108;3.390;2023-04-15T05:16:18;4.17;;;0.77;;
36501;SDS011;25393;46.108;3.390;2023-04-15T05:18:46;2.03;;;0.60;;
36501;SDS011;25393;46.108;3.390;2023-04-15T05:21:13;0.50;;;0.50;;
36501;SDS011;25393;46.108;3.390;2023-04-15T05:23:39;0.80;;;0.30;;
36501;SDS011;25393;46.108;3.390;2023-04-15T05:26:06;0.50;;;0.43;;
36501;SDS011;25393;46.108;3.390;2023-04-15T05:28:33;0.93;;;0.40;;
36501;SDS011;25393;46.108;3.390;2023-04-15T05:30:59;1.20;;;0.80;;
36501;SDS011;25393;46.108;3.390;2023-04-15T05:33:26;0.67;;;0.53;;
36501;SDS011;25393;46.108;3.390;2023-04-15T05:35:53;2.33;;;0.70;;
36501;SDS011;25393;46.108;3.390;2023-04-15T05:38:19;1.00;;;0.67;;
36501;SDS011;25393;46.108;3.390;2023-04-15T05:40:49;1.47;;;0.77;;
36501;SDS011;25393;46.108;3.390;2023-04-15T05:43:19;2.40;;;0.80;;
36501;SDS011;25393;46.108;3.390;2023-04-15T05:45:47;1.17;;;0.60;;
36501;SDS011;25393;46.108;3.390;2023-04-15T05:48:13;3.77;;;0.60;;
36501;SDS011;25393;46.108;3.390;2023-04-15T05:50:41;6.23;;;0.70;;
36501;SDS011;25393;46.108;3.390;2023-04-15T05:53:08;1.00;;;0.60;;
36501;SDS011;25393;46.108;3.390;2023-04-15T05:55:34;5.53;;;0.60;;
36501;SDS011;25393;46.108;3.390;2023-04-15T05:58:01;2.00;;;0.90;;
36501;SDS011;25393;46.108;3.390;2023-04-15T06:00:28;2.53;;;1.00;;
36501;SDS011;25393;46.108;3.390;2023-04-15T06:02:57;0.77;;;0.70;;
36501;SDS011;25393;46.108;3.390;2023-04-15T06:05:24;1.33;;;0.73;;
36501;SDS011;25393;46.108;3.390;2023-04-15T06:07:51;1.03;;;0.60;;
36501;SDS011;25393;46.108;3.390;2023-04-15T06:10:18;3.70;;;1.53;;
36501;SDS011;25393;46.108;3.390;2023-04-15T06:12:45;0.90;;;0.60;;
36501;SDS011;25393;46.108;3.390;2023-04-15T06:15:11;1.50;;;1.27;;
36501;SDS011;25393;46.108;3.390;2023-04-15T06:17:38;2.40;;;0.90;;
36501;SDS011;25393;46.108;3.390;2023-04-15T06:20:04;1.50;;;0.57;;
36501;SDS011;25393;46.108;3.390;2023-04-15T06:22:31;2.27;;;0.67;;
36501;SDS011;25393;46.108;3.390;2023-04-15T06:24:58;2.20;;;0.90;;
36501;SDS011;25393;46.108;3.390;2023-04-15T06:27:24;1.27;;;0.60;;
36501;SDS011;25393;46.108;3.390;2023-04-15T06:29:51;1.23;;;0.77;;
36501;SDS011;25393;46.108;3.390;2023-04-15T06:32:18;1.93;;;0.60;;
36501;SDS011;25393;46.108;3.390;2023-04-15T06:34:45;2.83;;;0.90;;
36501;SDS011;25393;46.108;3.390;2023-04-15T06:37:12;3.53;;;0.93;;
36501;SDS011;25393;46.108;3.390;2023-04-15T06:39:41;1.40;;;0.60;;
36501;SDS011;25393;46.108;3.390;2023-04-15T06:42:08;3.33;;;0.87;;
36501;SDS011;25393;46.108;3.390;2023-04-15T06:44:35;1.30;;;1.03;;
36501;SDS011;25393;46.108;3.390;2023-04-15T06:47:02;4.73;;;0.80;;
36501;SDS011;25393;46.108;3.390;2023-04-15T06:49:29;1.67;;;0.70;;
36501;SDS011;25393;46.108;3.390;2023-04-15T06:51:55;4.13;;;1.20;;
36501;SDS011;25393;46.108;3.390;2023-04-15T06:54:22;0.53;;;0.53;;
36501;SDS011;25393;46.108;3.390;2023-04-15T06:56:48;3.77;;;1.07;;
36501;SDS011;25393;46.108;3.390;2023-04-15T06:59:18;1.67;;;0.70;;
36501;SDS011;25393;46.108;3.390;2023-04-15T07:01:45;1.40;;;0.67;;
36501;SDS011;25393;46.108;3.390;2023-04-15T07:04:11;1.37;;;0.97;;
36501;SDS011;25393;46.108;3.390;2023-04-15T07:06:38;2.73;;;0.80;;
36501;SDS011;25393;46.108;3.390;2023-04-15T07:09:05;2.03;;;0.73;;
36501;SDS011;25393;46.108;3.390;2023-04-15T07:11:31;0.70;;;0.50;;
36501;SDS011;25393;46.108;3.390;2023-04-15T07:13:58;1.90;;;1.10;;
36501;SDS011;25393;46.108;3.390;2023-04-15T07:16:24;6.00;;;0.73;;
36501;SDS011;25393;46.108;3.390;2023-04-15T07:18:54;0.70;;;0.50;;
36501;SDS011;25393;46.108;3.390;2023-04-15T07:21:23;1.03;;;0.50;;
36501;SDS011;25393;46.108;3.390;2023-04-15T07:23:54;0.60;;;0.47;;
36501;SDS011;25393;46.108;3.390;2023-04-15T07:26:21;0.83;;;0.40;;
36501;SDS011;25393;46.108;3.390;2023-04-15T07:28:54;0.40;;;0.40;;
36501;SDS011;25393;46.108;3.390;2023-04-15T07:31:23;0.30;;;0.30;;
36501;SDS011;25393;46.108;3.390;2023-04-15T07:33:49;0.30;;;0.30;;
36501;SDS011;25393;46.108;3.390;2023-04-15T07:36:20;0.60;;;0.37;;
36501;SDS011;25393;46.108;3.390;2023-04-15T07:38:50;0.40;;;0.40;;
36501;SDS011;25393;46.108;3.390;2023-04-15T07:41:21;0.60;;;0.50;;
36501;SDS011;25393;46.108;3.390;2023-04-15T07:43:49;0.77;;;0.47;;
36501;SDS011;25393;46.108;3.390;2023-04-15T07:46:16;0.93;;;0.50;;
36501;SDS011;25393;46.108;3.390;2023-04-15T07:48:43;3.47;;;0.83;;
36501;SDS011;25393;46.108;3.390;2023-04-15T07:51:09;0.77;;;0.70;;
36501;SDS011;25393;46.108;3.390;2023-04-15T07:53:36;3.40;;;0.97;;
36501;SDS011;25393;46.108;3.390;2023-04-15T07:56:03;0.45;;;0.45;;
36501;SDS011;25393;46.108;3.390;2023-04-15T07:58:30;2.70;;;0.73;;
36501;SDS011;25393;46.108;3.390;2023-04-15T08:00:56;3.23;;;0.80;;
36501;SDS011;25393;46.108;3.390;2023-04-15T08:03:24;2.17;;;0.85;;
36501;SDS011;25393;46.108;3.390;2023-04-15T08:05:51;2.17;;;0.60;;
36501;SDS011;25393;46.108;3.390;2023-04-15T08:08:21;1.30;;;0.73;;
36501;SDS011;25393;46.108;3.390;2023-04-15T08:10:49;1.55;;;0.60;;
36501;SDS011;25393;46.108;3.390;2023-04-15T08:13:23;0.70;;;0.50;;
36501;SDS011;25393;46.108;3.390;2023-04-15T08:15:52;0.55;;;0.50;;
36501;SDS011;25393;46.108;3.390;2023-04-15T08:18:38;4.53;;;0.75;;
36501;SDS011;25393;46.108;3.390;2023-04-15T08:21:05;0.60;;;0.60;;
36501;SDS011;25393;46.108;3.390;2023-04-15T08:23:31;2.10;;;0.77;;
36501;SDS011;25393;46.108;3.390;2023-04-15T08:25:58;0.60;;;0.60;;
36501;SDS011;25393;46.108;3.390;2023-04-15T08:28:25;1.30;;;0.73;;
36501;SDS011;25393;46.108;3.390;2023-04-15T08:30:52;4.07;;;0.53;;
36501;SDS011;25393;46.108;3.390;2023-04-15T08:33:18;4.00;;;1.30;;
36501;SDS011;25393;46.108;3.390;2023-04-15T08:35:45;1.00;;;0.70;;
36501;SDS011;25393;46.108;3.390;2023-04-15T08:38:11;2.13;;;0.60;;
36501;SDS011;25393;46.108;3.390;2023-04-15T08:40:41;2.20;;;0.60;;
36501;SDS011;25393;46.108;3.390;2023-04-15T08:43:28;1.23;;;0.57;;
36501;SDS011;25393;46.108;3.390;2023-04-15T08:45:59;5.40;;;0.50;;
36501;SDS011;25393;46.108;3.390;2023-04-15T08:48:31;4.70;;;0.70;;
36501;SDS011;25393;46.108;3.390;2023-04-15T08:50:59;1.57;;;0.60;;
36501;SDS011;25393;46.108;3.390;2023-04-15T08:53:28;2.40;;;0.83;;
36501;SDS011;25393;46.108;3.390;2023-04-15T08:55:55;0.40;;;0.40;;
36501;SDS011;25393;46.108;3.390;2023-04-15T08:58:23;1.05;;;0.45;;
36501;SDS011;25393;46.108;3.390;2023-04-15T09:00:55;0.80;;;0.80;;
36501;SDS011;25393;46.108;3.390;2023-04-15T09:03:22;1.00;;;0.73;;
36501;SDS011;25393;46.108;3.390;2023-04-15T09:05:50;1.40;;;0.60;;
36501;SDS011;25393;46.108;3.390;2023-04-15T09:08:23;1.95;;;0.77;;
36501;SDS011;25393;46.108;3.390;2023-04-15T09:10:50;1.00;;;0.40;;
36501;SDS011;25393;46.108;3.390;2023-04-15T09:13:20;2.83;;;0.77;;
36501;SDS011;25393;46.108;3.390;2023-04-15T09:15:52;1.60;;;0.70;;
36501;SDS011;25393;46.108;3.390;2023-04-15T09:18:28;0.98;;;0.60;;
36501;SDS011;25393;46.108;3.390;2023-04-15T09:21:05;1.95;;;0.63;;
36501;SDS011;25393;46.108;3.390;2023-04-15T09:23:37;1.25;;;0.70;;
36501;SDS011;25393;46.108;3.390;2023-04-15T09:26:04;2.60;;;0.50;;
36501;SDS011;25393;46.108;3.390;2023-04-15T09:28:31;3.40;;;0.50;;
36501;SDS011;25393;46.108;3.390;2023-04-15T09:30:58;1.38;;;0.50;;
36501;SDS011;25393;46.108;3.390;2023-04-15T09:33:26;2.15;;;0.63;;
36501;SDS011;25393;46.108;3.390;2023-04-15T09:36:01;2.50;;;0.50;;
36501;SDS011;25393;46.108;3.390;2023-04-15T09:38:30;3.13;;;0.50;;
36501;SDS011;25393;46.108;3.390;2023-04-15T09:40:57;0.90;;;0.47;;
36501;SDS011;25393;46.108;3.390;2023-04-15T09:43:57;3.38;;;0.60;;
36501;SDS011;25393;46.108;3.390;2023-04-15T09:46:39;2.10;;;0.93;;
36501;SDS011;25393;46.108;3.390;2023-04-15T09:49:10;4.67;;;0.70;;
36501;SDS011;25393;46.108;3.390;2023-04-15T09:51:37;5.35;;;1.13;;
36501;SDS011;25393;46.108;3.390;2023-04-15T09:54:04;0.97;;;0.60;;
36501;SDS011;25393;46.108;3.390;2023-04-15T09:56:31;1.90;;;0.70;;
36501;SDS011;25393;46.108;3.390;2023-04-15T09:59:01;3.43;;;0.60;;
36501;SDS011;25393;46.108;3.390;2023-04-15T10:01:27;0.57;;;0.40;;
36501;SDS011;25393;46.108;3.390;2023-04-15T10:03:54;5.33;;;0.77;;
36501;SDS011;25393;46.108;3.390;2023-04-15T10:06:24;1.43;;;0.50;;
36501;SDS011;25393;46.108;3.390;2023-04-15T10:08:55;3.00;;;0.83;;
36501;SDS011;25393;46.108;3.390;2023-04-15T10:11:29;3.10;;;0.50;;
36501;SDS011;25393;46.108;3.390;2023-04-15T10:13:58;1.33;;;0.63;;
36501;SDS011;25393;46.108;3.390;2023-04-15T10:16:26;8.43;;;0.77;;
36501;SDS011;25393;46.108;3.390;2023-04-15T10:18:54;0.83;;;0.60;;
36501;SDS011;25393;46.108;3.390;2023-04-15T10:21:25;1.23;;;0.70;;
36501;SDS011;25393;46.108;3.390;2023-04-15T10:23:54;4.60;;;0.53;;
36501;SDS011;25393;46.108;3.390;2023-04-15T10:26:24;0.97;;;0.87;;
36501;SDS011;25393;46.108;3.390;2023-04-15T10:28:52;1.10;;;0.63;;
36501;SDS011;25393;46.108;3.390;2023-04-15T10:31:20;2.23;;;0.60;;
36501;SDS011;25393;46.108;3.390;2023-04-15T10:33:49;3.37;;;0.70;;
36501;SDS011;25393;46.108;3.390;2023-04-15T10:36:24;5.90;;;0.70;;
36501;SDS011;25393;46.108;3.390;2023-04-15T10:38:54;2.27;;;0.70;;
36501;SDS011;25393;46.108;3.390;2023-04-15T10:41:24;1.37;;;0.80;;
36501;SDS011;25393;46.108;3.390;2023-04-15T10:43:59;2.27;;;0.60;;
36501;SDS011;25393;46.108;3.390;2023-04-15T10:46:41;2.47;;;0.73;;
36501;SDS011;25393;46.108;3.390;2023-04-15T10:49:09;2.73;;;0.97;;
36501;SDS011;25393;46.108;3.390;2023-04-15T10:51:43;1.70;;;0.80;;
36501;SDS011;25393;46.108;3.390;2023-04-15T10:54:29;3.17;;;0.93;;
36501;SDS011;25393;46.108;3.390;2023-04-15T10:59:36;1.60;;;0.70;;
36501;SDS011;25393;46.108;3.390;2023-04-15T11:02:06;3.63;;;1.40;;
36501;SDS011;25393;46.108;3.390;2023-04-15T11:07:35;4.27;;;1.20;;
36501;SDS011;25393;46.108;3.390;2023-04-15T11:10:05;2.27;;;0.90;;
36501;SDS011;25393;46.108;3.390;2023-04-15T11:12:56;7.43;;;1.20;;
36501;SDS011;25393;46.108;3.390;2023-04-15T11:18:09;2.17;;;1.10;;
36501;SDS011;25393;46.108;3.390;2023-04-15T11:20:44;2.43;;;1.10;;
36501;SDS011;25393;46.108;3.390;2023-04-15T11:23:15;2.20;;;0.80;;
36501;SDS011;25393;46.108;3.390;2023-04-15T11:25:53;3.60;;;1.10;;
36501;SDS011;25393;46.108;3.390;2023-04-15T11:28:30;2.43;;;1.10;;
36501;SDS011;25393;46.108;3.390;2023-04-15T11:30:57;2.40;;;1.00;;
36501;SDS011;25393;46.108;3.390;2023-04-15T11:33:31;2.90;;;1.20;;
36501;SDS011;25393;46.108;3.390;2023-04-15T11:35:57;2.47;;;1.00;;
36501;SDS011;25393;46.108;3.390;2023-04-15T11:38:27;4.93;;;1.03;;
36501;SDS011;25393;46.108;3.390;2023-04-15T11:40:53;9.43;;;0.90;;
36501;SDS011;25393;46.108;3.390;2023-04-15T11:43:20;2.33;;;1.20;;
36501;SDS011;25393;46.108;3.390;2023-04-15T11:45:57;5.07;;;1.10;;
36501;SDS011;25393;46.108;3.390;2023-04-15T11:50:57;1.23;;;1.13;;
36501;SDS011;25393;46.108;3.390;2023-04-15T11:53:35;1.80;;;1.00;;
36501;SDS011;25393;46.108;3.390;2023-04-15T11:56:10;2.33;;;0.90;;
36501;SDS011;25393;46.108;3.390;2023-04-15T11:58:52;4.43;;;1.20;;
36501;SDS011;25393;46.108;3.390;2023-04-15T12:04:01;2.47;;;1.13;;
36501;SDS011;25393;46.108;3.390;2023-04-15T12:06:37;2.87;;;1.10;;
36501;SDS011;25393;46.108;3.390;2023-04-15T12:09:11;3.93;;;1.27;;
36501;SDS011;25393;46.108;3.390;2023-04-15T12:11:39;1.60;;;1.10;;
36501;SDS011;25393;46.108;3.390;2023-04-15T12:14:12;3.27;;;1.23;;
36501;SDS011;25393;46.108;3.390;2023-04-15T12:16:50;11.33;;;1.37;;
36501;SDS011;25393;46.108;3.390;2023-04-15T12:19:27;3.70;;;1.40;;
36501;SDS011;25393;46.108;3.390;2023-04-15T12:21:58;2.40;;;1.40;;
36501;SDS011;25393;46.108;3.390;2023-04-15T12:24:27;2.87;;;1.30;;
36501;SDS011;25393;46.108;3.390;2023-04-15T12:26:56;1.80;;;1.30;;
36501;SDS011;25393;46.108;3.390;2023-04-15T12:29:28;2.47;;;1.00;;
36501;SDS011;25393;46.108;3.390;2023-04-15T12:31:56;1.83;;;0.83;;
36501;SDS011;25393;46.108;3.390;2023-04-15T12:34:26;1.07;;;0.87;;
36501;SDS011;25393;46.108;3.390;2023-04-15T12:36:59;5.83;;;1.17;;
36501;SDS011;25393;46.108;3.390;2023-04-15T12:39:27;6.13;;;1.40;;
36501;SDS011;25393;46.108;3.390;2023-04-15T12:41:56;5.53;;;1.43;;
36501;SDS011;25393;46.108;3.390;2023-04-15T12:44:24;3.10;;;1.10;;
36501;SDS011;25393;46.108;3.390;2023-04-15T12:46:52;1.83;;;1.10;;
36501;SDS011;25393;46.108;3.390;2023-04-15T12:49:21;3.60;;;1.30;;
36501;SDS011;25393;46.108;3.390;2023-04-15T12:51:50;4.77;;;1.77;;
36501;SDS011;25393;46.108;3.390;2023-04-15T12:54:28;3.07;;;1.20;;
36501;SDS011;25393;46.108;3.390;2023-04-15T12:56:56;2.93;;;1.17;;
36501;SDS011;25393;46.108;3.390;2023-04-15T12:59:23;4.63;;;1.10;;
36501;SDS011;25393;46.108;3.390;2023-04-15T13:01:52;1.70;;;1.17;;
36501;SDS011;25393;46.108;3.390;2023-04-15T13:04:20;2.60;;;1.30;;
36501;SDS011;25393;46.108;3.390;2023-04-15T13:06:47;2.80;;;1.37;;
36501;SDS011;25393;46.108;3.390;2023-04-15T13:09:14;5.00;;;1.27;;
36501;SDS011;25393;46.108;3.390;2023-04-15T13:11:41;3.17;;;1.40;;
36501;SDS011;25393;46.108;3.390;2023-04-15T13:14:08;3.67;;;1.47;;
36501;SDS011;25393;46.108;3.390;2023-04-15T13:16:37;3.00;;;1.27;;
36501;SDS011;25393;46.108;3.390;2023-04-15T13:19:04;3.33;;;1.30;;
36501;SDS011;25393;46.108;3.390;2023-04-15T13:21:30;3.97;;;1.20;;
36501;SDS011;25393;46.108;3.390;2023-04-15T13:24:01;5.93;;;1.97;;
36501;SDS011;25393;46.108;3.390;2023-04-15T13:26:28;2.53;;;1.10;;
36501;SDS011;25393;46.108;3.390;2023-04-15T13:28:55;2.73;;;1.40;;
36501;SDS011;25393;46.108;3.390;2023-04-15T13:31:22;3.03;;;1.30;;
36501;SDS011;25393;46.108;3.390;2023-04-15T13:33:58;2.37;;;1.60;;
36501;SDS011;25393;46.108;3.390;2023-04-15T13:36:28;2.93;;;1.10;;
36501;SDS011;25393;46.108;3.390;2023-04-15T13:38:54;3.35;;;1.40;;
36501;SDS011;25393;46.108;3.390;2023-04-15T13:41:23;3.60;;;1.30;;
36501;SDS011;25393;46.108;3.390;2023-04-15T13:43:49;1.50;;;1.30;;
36501;SDS011;25393;46.108;3.390;2023-04-15T13:46:16;3.63;;;1.30;;
36501;SDS011;25393;46.108;3.390;2023-04-15T13:48:43;2.83;;;1.47;;
36501;SDS011;25393;46.108;3.390;2023-04-15T13:51:09;3.08;;;1.30;;
36501;SDS011;25393;46.108;3.390;2023-04-15T13:53:35;2.40;;;1.30;;
36501;SDS011;25393;46.108;3.390;2023-04-15T13:56:07;2.87;;;1.30;;
36501;SDS011;25393;46.108;3.390;2023-04-15T13:58:35;2.20;;;1.20;;
36501;SDS011;25393;46.108;3.390;2023-04-15T14:01:03;4.90;;;1.30;;
36501;SDS011;25393;46.108;3.390;2023-04-15T14:03:32;4.97;;;1.60;;
36501;SDS011;25393;46.108;3.390;2023-04-15T14:06:00;2.00;;;1.20;;
36501;SDS011;25393;46.108;3.390;2023-04-15T14:08:29;3.83;;;1.70;;
36501;SDS011;25393;46.108;3.390;2023-04-15T14:10:56;5.30;;;1.60;;
36501;SDS011;25393;46.108;3.390;2023-04-15T14:13:24;5.23;;;1.40;;
36501;SDS011;25393;46.108;3.390;2023-04-15T14:15:50;7.93;;;1.90;;
36501;SDS011;25393;46.108;3.390;2023-04-15T14:18:17;5.17;;;1.67;;
36501;SDS011;25393;46.108;3.390;2023-04-15T14:20:43;3.40;;;1.43;;
36501;SDS011;25393;46.108;3.390;2023-04-15T14:23:10;6.37;;;1.50;;
36501;SDS011;25393;46.108;3.390;2023-04-15T14:25:37;2.27;;;1.60;;
36501;SDS011;25393;46.108;3.390;2023-04-15T14:28:04;2.87;;;1.73;;
36501;SDS011;25393;46.108;3.390;2023-04-15T14:30:31;2.10;;;1.50;;
36501;SDS011;25393;46.108;3.390;2023-04-15T14:32:57;3.33;;;1.40;;
36501;SDS011;25393;46.108;3.390;2023-04-15T14:35:24;3.70;;;1.40;;
36501;SDS011;25393;46.108;3.390;2023-04-15T14:37:54;5.20;;;1.53;;
36501;SDS011;25393;46.108;3.390;2023-04-15T14:40:24;4.33;;;1.10;;
36501;SDS011;25393;46.108;3.390;2023-04-15T14:42:50;2.27;;;1.37;;
36501;SDS011;25393;46.108;3.390;2023-04-15T14:45:17;4.30;;;1.63;;
36501;SDS011;25393;46.108;3.390;2023-04-15T14:47:43;2.60;;;1.47;;
36501;SDS011;25393;46.108;3.390;2023-04-15T14:50:10;1.20;;;1.00;;
36501;SDS011;25393;46.108;3.390;2023-04-15T14:52:37;4.87;;;1.47;;
36501;SDS011;25393;46.108;3.390;2023-04-15T14:55:05;1.60;;;1.30;;
36501;SDS011;25393;46.108;3.390;2023-04-15T14:57:32;2.13;;;1.47;;
36501;SDS011;25393;46.108;3.390;2023-04-15T14:59:58;3.43;;;1.50;;
36501;SDS011;25393;46.108;3.390;2023-04-15T15:02:25;4.17;;;2.53;;
36501;SDS011;25393;46.108;3.390;2023-04-15T15:05:04;3.53;;;1.70;;
36501;SDS011;25393;46.108;3.390;2023-04-15T15:07:31;3.70;;;1.70;;
36501;SDS011;25393;46.108;3.390;2023-04-15T15:09:58;3.73;;;1.43;;